Time;durP1;ratioP1;P1;durP2;ratioP2;P2;SDS_P1;SDS_P2;PMS_P1;PMS_P2;Temp;Humidity;BMP_temperature;BMP_pressure;BME280_temperature;BME280_humidity;BME280_pressure;Samples;Min_cycle;Max_cycle;Signal;HPM_P1;HPM_P2
2022/03/09 00:02:00;;;;;;;;;67.75;52.50;;;;;10.69;38.47;101426.50;5061111;28;45449;-54
2022/03/09 00:04:26;;;;;;;;;69.75;53.50;;;;;10.64;38.65;101423.03;5061393;28;45474;-52
2022/03/09 00:06:51;;;;;;;;;61.50;49.50;;;;;10.64;38.60;101425.66;5061466;28;45394;-51
2022/03/09 00:09:17;;;;;;;;;67.25;51.50;;;;;10.62;38.50;101422.16;5060939;28;45302;-52
2022/03/09 00:11:42;;;;;;;;;74.00;53.50;;;;;10.60;38.56;101423.91;5060162;28;45383;-54
2022/03/09 00:14:08;;;;;;;;;68.50;50.50;;;;;10.57;38.73;101424.78;5061161;28;45552;-54
2022/03/09 00:16:34;;;;;;;;;65.25;51.00;;;;;10.55;38.64;101426.56;5055704;28;46120;-52
2022/03/09 00:18:59;;;;;;;;;67.50;51.25;;;;;10.52;38.80;101426.56;5060993;28;45245;-51
2022/03/09 00:21:24;;;;;;;;;61.25;49.50;;;;;10.49;38.71;101433.56;5061307;28;45482;-54
2022/03/09 00:23:50;;;;;;;;;66.00;52.75;;;;;10.47;38.77;101430.94;5059952;28;45221;-54
2022/03/09 00:26:15;;;;;;;;;66.25;50.25;;;;;10.44;38.81;101432.72;5056408;28;46375;-54
2022/03/09 00:28:41;;;;;;;;;64.00;50.00;;;;;10.44;38.86;101433.59;5060930;28;45168;-51
2022/03/09 00:31:07;;;;;;;;;68.75;51.75;;;;;10.43;38.85;101428.34;5059492;28;45236;-50
2022/03/09 00:33:33;;;;;;;;;70.00;52.25;;;;;10.36;38.87;101425.75;5060627;28;45189;-52
2022/03/09 00:35:59;;;;;;;;;66.75;50.75;;;;;10.37;39.13;101435.34;5060856;28;45382;-51
2022/03/09 00:38:24;;;;;;;;;67.00;52.25;;;;;10.36;38.90;101445.88;5060750;28;45494;-53
2022/03/09 00:40:50;;;;;;;;;68.50;52.00;;;;;10.35;39.02;101451.97;5043747;28;45980;-52
2022/03/09 00:43:15;;;;;;;;;66.75;50.00;;;;;10.33;38.74;101456.38;5059468;28;45435;-50
2022/03/09 00:45:41;;;;;;;;;64.75;50.50;;;;;10.31;38.86;101453.72;5054817;28;45391;-50
2022/03/09 00:48:06;;;;;;;;;63.00;49.25;;;;;10.30;39.08;101453.72;5060493;28;45264;-50
2022/03/09 00:50:32;;;;;;;;;62.50;50.50;;;;;10.28;38.94;101448.50;5059659;28;45362;-54
2022/03/09 00:52:57;;;;;;;;;69.50;53.75;;;;;10.24;39.03;101442.34;5060788;28;45553;-54
2022/03/09 00:55:23;;;;;;;;;65.50;49.75;;;;;10.25;39.07;101446.75;5060634;28;46308;-50
2022/03/09 00:57:48;;;;;;;;;67.50;51.00;;;;;10.24;39.03;101449.38;5060582;28;45430;-52
2022/03/09 01:00:14;;;;;;;;;55.00;44.75;;;;;10.23;39.15;101450.25;5060890;28;45239;-53
2022/03/09 01:02:41;;;;;;;;;73.75;55.00;;;;;10.21;39.23;101457.25;5060242;28;45240;-53
2022/03/09 01:05:07;;;;;;;;;68.00;53.00;;;;;10.17;39.08;101453.75;5060588;28;45268;-54
2022/03/09 01:07:32;;;;;;;;;68.75;52.25;;;;;10.17;39.20;101458.13;5060147;28;45312;-51
2022/03/09 01:09:58;;;;;;;;;68.75;52.50;;;;;10.15;39.08;101457.25;5059359;28;45282;-52
2022/03/09 01:12:23;;;;;;;;;66.25;53.00;;;;;10.12;38.95;101457.28;5059046;28;45285;-51
2022/03/09 01:14:48;;;;;;;;;69.00;53.50;;;;;10.09;39.16;101456.38;5059909;28;46843;-50
2022/03/09 01:17:14;;;;;;;;;67.75;52.25;;;;;10.11;39.15;101456.38;5055880;28;45375;-54
2022/03/09 01:19:39;;;;;;;;;71.75;55.50;;;;;10.09;39.50;101458.16;5060456;28;45303;-51
2022/03/09 01:22:04;;;;;;;;;68.50;53.00;;;;;10.07;39.19;101452.00;5060385;28;45424;-51
2022/03/09 01:24:30;;;;;;;;;70.50;53.25;;;;;10.07;39.50;101457.25;5053713;28;45283;-53
2022/03/09 01:26:55;;;;;;;;;67.50;52.50;;;;;10.05;39.39;101457.28;5069269;28;45279;-53
2022/03/09 01:29:20;;;;;;;;;69.00;51.75;;;;;10.02;39.38;101457.25;5059028;28;45315;-51
2022/03/09 01:31:46;;;;;;;;;68.00;53.00;;;;;10.00;39.30;101461.66;5060061;28;45272;-52
2022/03/09 01:34:11;;;;;;;;;67.50;51.50;;;;;10.00;39.51;101460.75;5060167;28;45302;-50
2022/03/09 01:36:37;;;;;;;;;70.50;54.25;;;;;9.99;39.72;101461.66;5060325;28;45315;-52
2022/03/09 01:39:03;;;;;;;;;74.25;56.00;;;;;9.96;39.50;101469.53;5060143;28;45427;-51
2022/03/09 01:41:28;;;;;;;;;75.25;56.75;;;;;9.93;39.38;101466.00;5058758;28;45202;-54
2022/03/09 01:44:17;;;;;;;;;67.50;51.25;;;;;9.90;39.59;101473.91;5060058;28;45229;-52
2022/03/09 01:46:46;;;;;;;;;70.75;54.75;;;;;9.88;39.49;101459.03;5059765;28;45355;-54
2022/03/09 01:49:12;;;;;;;;;68.25;53.00;;;;;9.88;39.69;101466.91;5060249;28;45505;-51
2022/03/09 01:51:43;;;;;;;;;65.75;50.50;;;;;9.85;39.78;101462.53;5059717;28;45362;-53
2022/03/09 01:54:10;;;;;;;;;65.50;52.50;;;;;9.84;39.36;101457.28;5059737;28;46211;-52
2022/03/09 01:56:36;;;;;;;;;69.00;54.00;;;;;9.80;39.88;101456.41;5058414;28;45892;-52
2022/03/09 01:59:03;;;;;;;;;66.50;51.00;;;;;9.80;39.55;101451.16;5059955;28;45412;-51
2022/03/09 02:01:29;;;;;;;;;56.00;43.75;;;;;9.78;39.70;101449.41;5059561;28;46803;-52
2022/03/09 02:03:56;;;;;;;;;74.25;53.75;;;;;9.76;39.92;101446.78;5059689;28;45327;-52
2022/03/09 02:06:22;;;;;;;;;74.75;55.50;;;;;9.74;39.97;101445.91;5058413;28;45229;-52
2022/03/09 02:11:33;;;;;;;;;70.00;55.25;;;;;9.68;39.84;101453.75;5049040;28;45232;-50
2022/03/09 02:13:59;;;;;;;;;73.75;55.75;;;;;9.67;39.87;101449.38;5059412;28;45342;-51
2022/03/09 02:16:24;;;;;;;;;63.00;49.00;;;;;9.64;39.78;101442.38;5056876;28;45993;-52
2022/03/09 02:18:49;;;;;;;;;73.50;55.50;;;;;9.62;39.52;101449.38;5058340;28;45258;-51
2022/03/09 02:21:16;;;;;;;;;70.25;55.00;;;;;9.61;39.97;101442.38;5059418;28;45272;-49
2022/03/09 02:23:41;;;;;;;;;75.50;55.25;;;;;9.59;39.82;101450.25;5058455;28;46104;-51
2022/03/09 02:26:07;;;;;;;;;78.00;58.25;;;;;9.58;40.14;101450.25;5046106;28;45304;-52
2022/03/09 02:28:58;;;;;;;;;74.25;55.75;;;;;9.56;40.13;101445.00;5061377;28;45922;-49
2022/03/09 02:31:24;;;;;;;;;72.50;55.75;;;;;9.54;39.90;101445.88;5061610;28;45324;-49
2022/03/09 02:33:49;;;;;;;;;72.25;56.75;;;;;9.52;40.03;101443.25;5062753;28;45450;-50
2022/03/09 02:36:14;;;;;;;;;70.50;56.00;;;;;9.51;40.09;101440.59;5063031;28;45324;-51
2022/03/09 02:38:40;;;;;;;;;75.50;56.25;;;;;9.50;40.12;101436.25;5062940;28;45308;-49
2022/03/09 02:41:05;;;;;;;;;76.50;58.00;;;;;9.48;40.25;101443.25;5061516;28;45399;-52
2022/03/09 02:43:30;;;;;;;;;77.00;57.75;;;;;9.49;40.25;101452.88;5061410;28;46947;-52
2022/03/09 02:45:56;;;;;;;;;77.00;57.25;;;;;9.47;40.03;101447.63;5061552;28;45371;-52
2022/03/09 02:48:21;;;;;;;;;72.25;55.25;;;;;9.44;40.11;101448.47;5062589;28;45569;-52
2022/03/09 02:50:47;;;;;;;;;70.75;54.75;;;;;9.43;40.30;101457.22;5062879;28;45449;-51
2022/03/09 02:53:12;;;;;;;;;71.00;53.25;;;;;9.40;40.27;101446.72;5062631;28;46005;-51
2022/03/09 02:55:39;;;;;;;;;68.75;55.00;;;;;9.38;40.29;101453.72;5062777;28;45398;-50
2022/03/09 02:58:04;;;;;;;;;69.00;53.50;;;;;9.36;40.44;101458.09;5062660;28;45368;-51
2022/03/09 03:00:29;;;;;;;;;71.75;53.50;;;;;9.33;40.33;101465.94;5062679;28;45232;-52
2022/03/09 03:02:55;;;;;;;;;65.50;51.25;;;;;9.32;40.24;101469.44;5062132;28;45363;-51
2022/03/09 03:05:20;;;;;;;;;69.25;54.50;;;;;9.29;40.03;101469.41;5061229;28;45279;-52
2022/03/09 03:07:46;;;;;;;;;69.00;53.50;;;;;9.27;40.09;101468.56;5062332;28;45481;-49
2022/03/09 03:10:11;;;;;;;;;67.50;51.75;;;;;9.24;40.33;101472.06;5061144;28;45490;-50
2022/03/09 03:12:36;;;;;;;;;65.00;50.75;;;;;9.22;40.38;101465.03;5062243;28;45375;-51
2022/03/09 03:15:04;;;;;;;;;66.00;51.75;;;;;9.20;40.30;101466.78;5062385;28;45293;-52
2022/03/09 03:17:29;;;;;;;;;68.25;51.25;;;;;9.17;40.54;101465.03;5058199;28;45414;-53
2022/03/09 03:19:55;;;;;;;;;65.75;50.25;;;;;9.13;40.47;101457.13;5062315;28;45260;-52
2022/03/09 03:22:20;;;;;;;;;65.50;50.50;;;;;9.11;40.54;101457.16;5062033;28;46183;-52
2022/03/09 03:24:45;;;;;;;;;67.50;52.00;;;;;9.13;40.45;101457.13;5053642;28;45374;-52
2022/03/09 03:27:11;;;;;;;;;71.00;52.75;;;;;9.12;40.51;101461.53;5057875;28;45331;-52
2022/03/09 03:29:36;;;;;;;;;67.75;51.25;;;;;9.12;40.39;101461.53;5062271;28;45294;-50
2022/03/09 03:32:02;;;;;;;;;65.00;49.25;;;;;9.12;40.25;101458.91;5060390;28;47896;-53
2022/03/09 03:34:27;;;;;;;;;67.75;51.00;;;;;9.10;40.48;101458.00;5060749;28;45273;-49
2022/03/09 03:36:52;;;;;;;;;67.25;52.50;;;;;9.09;40.46;101456.25;5060756;28;45309;-52
2022/03/09 03:39:21;;;;;;;;;70.25;51.75;;;;;9.06;40.60;101456.25;5039995;28;45518;-52
2022/03/09 03:41:46;;;;;;;;;68.00;52.00;;;;;9.03;40.35;101462.38;5058256;28;46172;-52
2022/03/09 03:44:11;;;;;;;;;70.75;54.00;;;;;9.00;40.54;101462.34;5062008;28;45196;-52
2022/03/09 03:46:37;;;;;;;;;63.00;47.50;;;;;8.99;40.81;101464.97;5061703;28;45639;-49
2022/03/09 03:49:03;;;;;;;;;69.50;52.25;;;;;8.96;40.62;101465.81;5061856;28;45562;-51
2022/03/09 03:51:29;;;;;;;;;67.25;50.75;;;;;8.93;40.63;101471.03;5060285;28;47712;-52
2022/03/09 03:53:54;;;;;;;;;66.50;50.50;;;;;8.91;40.72;101468.41;5061672;28;45361;-52
2022/03/09 03:56:19;;;;;;;;;63.50;50.00;;;;;8.90;40.82;101468.41;5061794;28;45382;-49
2022/03/09 03:58:45;;;;;;;;;68.50;52.00;;;;;8.88;40.74;101473.66;5060394;28;45435;-49
2022/03/09 04:01:10;;;;;;;;;67.25;51.25;;;;;8.85;40.89;101472.75;5059917;28;46100;-49
2022/03/09 04:03:35;;;;;;;;;71.25;53.25;;;;;8.81;40.85;101476.25;5061557;28;45529;-51
2022/03/09 04:06:02;;;;;;;;;65.25;52.25;;;;;8.81;40.85;101476.25;5061615;28;45423;-50
2022/03/09 04:08:27;;;;;;;;;62.75;48.00;;;;;8.77;40.93;101475.34;5061336;28;45440;-51
2022/03/09 04:10:52;;;;;;;;;66.00;50.00;;;;;8.75;40.77;101472.72;5061226;28;46209;-52
2022/03/09 04:13:18;;;;;;;;;64.00;49.50;;;;;8.74;40.98;101473.59;5061551;28;45480;-52
2022/03/09 04:15:43;;;;;;;;;63.00;49.50;;;;;8.72;40.91;101477.94;5060257;28;45683;-51
2022/03/09 04:18:09;;;;;;;;;64.00;49.25;;;;;8.70;40.98;101473.56;5057280;28;45600;-52
2022/03/09 04:20:34;;;;;;;;;65.25;50.75;;;;;8.68;41.05;101470.94;5061094;28;45235;-52
2022/03/09 04:22:59;;;;;;;;;64.00;49.00;;;;;8.67;41.04;101473.56;5060154;28;45354;-53
2022/03/09 04:25:26;;;;;;;;;65.75;51.75;;;;;8.64;41.18;101477.03;5048291;28;45279;-52
2022/03/09 04:27:52;;;;;;;;;62.00;48.00;;;;;8.61;41.13;101472.63;5061353;28;45165;-50
2022/03/09 04:30:17;;;;;;;;;62.00;48.00;;;;;8.58;40.98;101477.88;5061009;28;45495;-50
2022/03/09 04:32:43;;;;;;;;;63.25;48.25;;;;;8.58;41.12;101484.88;5061094;28;45432;-51
2022/03/09 04:35:09;;;;;;;;;64.00;49.50;;;;;8.54;41.33;101477.81;5061224;28;45397;-53
2022/03/09 04:37:34;;;;;;;;;61.75;49.00;;;;;8.53;41.39;101487.44;5061299;28;45598;-52
2022/03/09 04:40:01;;;;;;;;;63.25;50.00;;;;;8.52;41.31;101490.06;5060647;28;45943;-52
2022/03/09 04:42:27;;;;;;;;;56.25;46.75;;;;;8.42;41.70;101474.22;5061059;28;45315;-53
2022/03/09 04:44:53;;;;;;;;;63.00;50.00;;;;;8.47;41.60;101489.16;5061007;28;45546;-53
2022/03/09 04:47:19;;;;;;;;;65.50;51.25;;;;;8.47;41.53;101494.41;5060936;28;45698;-51
2022/03/09 04:49:44;;;;;;;;;61.25;45.25;;;;;8.47;41.69;101491.78;5059752;28;46029;-53
2022/03/09 04:52:09;;;;;;;;;63.75;47.25;;;;;8.43;41.65;101496.94;5060830;28;45292;-52
2022/03/09 04:54:35;;;;;;;;;66.50;52.00;;;;;8.44;41.54;101500.47;5060785;28;45208;-50
2022/03/09 04:57:00;;;;;;;;;64.75;48.25;;;;;8.42;41.70;101499.56;5060896;28;45294;-53
2022/03/09 04:59:26;;;;;;;;;61.00;45.75;;;;;8.39;41.57;101495.19;5060396;28;45190;-52
2022/03/09 05:01:51;;;;;;;;;67.00;50.50;;;;;8.39;41.65;101496.91;5060415;28;45383;-53
2022/03/09 05:04:17;;;;;;;;;68.25;51.50;;;;;8.38;41.83;101506.53;5060739;28;45299;-52
2022/03/09 05:06:42;;;;;;;;;64.00;50.00;;;;;8.36;41.63;101505.63;5060719;28;45294;-51
2022/03/09 05:09:07;;;;;;;;;67.75;50.50;;;;;8.35;41.78;101503.00;5060156;28;45659;-49
2022/03/09 05:11:33;;;;;;;;;61.50;48.50;;;;;8.34;41.78;101509.09;5060576;28;45350;-52
2022/03/09 05:13:58;;;;;;;;;67.25;51.00;;;;;8.31;41.67;101509.94;5060703;28;45342;-51
2022/03/09 05:16:23;;;;;;;;;63.00;50.00;;;;;8.28;41.90;101504.72;5056617;28;45284;-53
2022/03/09 05:18:49;;;;;;;;;60.25;49.25;;;;;8.26;42.03;101509.03;5060231;28;46013;-53
2022/03/09 05:21:14;;;;;;;;;63.75;50.00;;;;;8.24;41.95;101505.56;5046934;28;45404;-53
2022/03/09 05:23:39;;;;;;;;;63.75;48.50;;;;;8.21;41.87;101514.22;5060896;28;45298;-53
2022/03/09 05:26:05;;;;;;;;;63.00;49.00;;;;;8.23;42.13;101516.88;5046999;27;45568;-53
2022/03/09 05:28:30;;;;;;;;;58.75;44.50;;;;;8.20;41.85;101514.22;5060202;28;45408;-52
2022/03/09 05:30:56;;;;;;;;;56.00;45.00;;;;;8.14;41.91;101515.94;5060213;28;45196;-53
2022/03/09 05:33:21;;;;;;;;;59.25;44.50;;;;;8.14;42.01;101522.94;5060180;28;45493;-52
2022/03/09 05:35:46;;;;;;;;;59.50;45.75;;;;;8.10;42.19;101535.13;5060315;28;45324;-53
2022/03/09 05:38:12;;;;;;;;;58.25;44.50;;;;;8.08;42.09;101523.72;5060255;28;45331;-54
2022/03/09 05:40:37;;;;;;;;;57.25;46.75;;;;;8.06;42.09;101528.09;5059802;28;45296;-54
2022/03/09 05:43:02;;;;;;;;;63.75;48.50;;;;;8.05;42.29;101528.97;5060340;28;45430;-52
2022/03/09 05:45:28;;;;;;;;;60.50;46.25;;;;;8.04;42.30;101527.19;5060190;28;45241;-53
2022/03/09 05:47:53;;;;;;;;;57.75;47.25;;;;;8.03;42.20;101527.19;5059879;28;46833;-51
2022/03/09 05:50:19;;;;;;;;;57.25;45.25;;;;;8.02;42.42;101535.91;5046525;28;45251;-53
2022/03/09 05:52:45;;;;;;;;;59.25;44.25;;;;;8.02;41.92;101539.38;5058746;28;45241;-52
2022/03/09 05:55:10;;;;;;;;;55.75;44.25;;;;;8.01;42.18;101547.22;5046551;28;45615;-47
2022/03/09 05:57:35;;;;;;;;;54.00;44.25;;;;;8.00;42.16;101549.00;5059698;28;45658;-51
2022/03/09 06:00:02;;;;;;;;;57.50;46.00;;;;;7.99;42.41;101552.47;5059649;28;45209;-57
2022/03/09 06:02:28;;;;;;;;;56.75;45.75;;;;;7.99;42.29;101552.47;5059598;28;45573;-53
2022/03/09 06:04:53;;;;;;;;;60.25;44.75;;;;;7.99;42.36;101552.47;5060006;28;45518;-48
2022/03/09 06:07:18;;;;;;;;;54.25;43.25;;;;;7.98;42.34;101555.94;5058124;28;47522;-49
2022/03/09 06:09:44;;;;;;;;;56.50;44.75;;;;;8.01;42.36;101555.09;5059665;28;45342;-47
2022/03/09 06:12:10;;;;;;;;;56.25;43.75;;;;;8.02;42.33;101551.63;5059710;28;45416;-54
2022/03/09 06:14:35;;;;;;;;;59.50;46.50;;;;;8.02;42.44;101555.09;5059820;28;45299;-52
2022/03/09 06:17:00;;;;;;;;;60.25;44.25;;;;;8.01;42.34;101563.81;5055690;28;46236;-49
2022/03/09 06:19:26;;;;;;;;;56.50;44.00;;;;;8.02;42.51;101567.31;5059327;28;45335;-50
2022/03/09 06:21:52;;;;;;;;;52.50;40.25;;;;;8.02;42.52;101554.22;5059765;28;45962;-50
2022/03/09 06:24:18;;;;;;;;;58.50;45.25;;;;;8.01;42.49;101558.56;5054402;28;45315;-51
2022/03/09 06:26:44;;;;;;;;;54.75;44.25;;;;;8.02;42.63;101568.19;5051844;28;45413;-54
2022/03/09 06:29:10;;;;;;;;;50.75;43.50;;;;;8.02;42.67;101557.72;5059228;28;45339;-57
2022/03/09 06:31:35;;;;;;;;;56.50;44.50;;;;;8.03;42.49;101564.72;5059395;28;45434;-56
2022/03/09 06:34:01;;;;;;;;;57.25;44.50;;;;;8.02;42.65;101559.47;5059559;28;45232;-56
2022/03/09 06:36:26;;;;;;;;;58.50;47.50;;;;;8.05;42.74;101563.00;5059604;28;45216;-55
2022/03/09 06:38:52;;;;;;;;;56.75;45.00;;;;;8.07;42.68;101568.22;5057307;28;45273;-55
2022/03/09 06:41:17;;;;;;;;;52.50;40.25;;;;;8.08;42.84;101570.84;5059350;28;45453;-54
2022/03/09 06:43:43;;;;;;;;;59.50;44.00;;;;;8.08;42.64;101576.09;5058953;28;45345;-53
2022/03/09 06:46:09;;;;;;;;;55.50;44.00;;;;;8.09;42.66;101569.13;5058998;28;46051;-55
2022/03/09 06:48:34;;;;;;;;;56.50;44.00;;;;;8.09;42.83;101569.13;5059045;28;45323;-55
2022/03/09 06:51:00;;;;;;;;;63.75;47.00;;;;;8.12;42.79;101571.78;5058022;28;45362;-55
2022/03/09 06:53:25;;;;;;;;;61.25;49.50;;;;;8.13;42.90;101576.16;5058844;28;45339;-55
2022/03/09 06:55:51;;;;;;;;;54.50;43.75;;;;;8.13;42.85;101573.53;5058817;28;46024;-55
2022/03/09 06:58:16;;;;;;;;;56.25;45.00;;;;;8.04;43.01;101563.00;5058457;28;45362;-49
2022/03/09 07:00:42;;;;;;;;;56.00;43.50;;;;;8.12;42.60;101570.00;5058684;28;45370;-50
2022/03/09 07:03:07;;;;;;;;;61.25;47.25;;;;;8.14;42.64;101584.00;5057168;28;45392;-57
2022/03/09 07:05:33;;;;;;;;;53.75;43.75;;;;;8.14;42.78;101585.75;5058561;28;45276;-51
2022/03/09 07:07:59;;;;;;;;;57.00;45.75;;;;;8.13;43.03;101590.09;5058416;28;45269;-58
2022/03/09 07:10:25;;;;;;;;;56.00;41.25;;;;;8.14;43.16;101597.09;5059038;28;45336;-57
2022/03/09 07:12:51;;;;;;;;;58.75;43.50;;;;;8.13;43.39;101597.09;5059376;28;45237;-58
2022/03/09 07:15:16;;;;;;;;;52.75;43.25;;;;;8.12;43.21;101606.66;5062581;28;45281;-58
2022/03/09 07:17:42;;;;;;;;;54.75;43.25;;;;;8.13;43.23;101600.56;5056428;28;45336;-53
2022/03/09 07:20:09;;;;;;;;;54.50;44.75;;;;;8.15;43.41;101600.63;5062790;28;45546;-63
2022/03/09 07:22:34;;;;;;;;;52.00;43.75;;;;;8.18;43.53;101599.75;5062170;28;45355;-68
2022/03/09 07:25:00;;;;;;;;;53.50;43.75;;;;;8.18;43.31;101602.38;5058077;28;47956;-59
2022/03/09 07:27:25;;;;;;;;;53.00;41.25;;;;;8.20;43.49;101603.25;5059596;28;45438;-54
2022/03/09 07:29:50;;;;;;;;;53.50;41.50;;;;;8.24;43.47;101612.91;5062211;28;45517;-47
2022/03/09 07:32:16;;;;;;;;;52.75;44.75;;;;;8.26;43.51;101612.06;5060477;28;45560;-45
2022/03/09 07:34:42;;;;;;;;;53.25;44.50;;;;;8.32;43.65;101615.59;5061785;28;45932;-45
2022/03/09 07:37:07;;;;;;;;;58.75;46.25;;;;;8.35;43.57;101613.91;5060423;28;45320;-47
2022/03/09 07:39:33;;;;;;;;;56.75;43.00;;;;;8.37;43.66;101613.91;5060577;28;45288;-46
2022/03/09 07:41:59;;;;;;;;;53.00;39.50;;;;;8.41;43.65;101613.91;5061557;28;45403;-48
2022/03/09 07:44:25;;;;;;;;;55.75;43.25;;;;;8.43;43.74;101609.59;5061834;28;46202;-45
2022/03/09 07:46:51;;;;;;;;;56.25;44.50;;;;;8.50;43.90;101617.53;5061459;28;45710;-48
2022/03/09 07:49:18;;;;;;;;;56.50;45.00;;;;;8.53;44.03;101612.31;5061907;28;45304;-47
2022/03/09 07:51:44;;;;;;;;;53.50;42.50;;;;;8.55;44.16;101610.59;5061382;28;45354;-47
2022/03/09 07:54:10;;;;;;;;;53.75;43.75;;;;;8.56;44.25;101620.19;5061590;28;46207;-46
2022/03/09 07:56:36;;;;;;;;;54.25;44.25;;;;;8.60;43.53;101624.59;5061544;28;45380;-48
2022/03/09 07:59:06;;;;;;;;;59.00;47.75;;;;;8.63;44.30;101627.25;5060498;28;45414;-49
2022/03/09 08:01:32;;;;;;;;;59.00;48.25;;;;;8.66;44.36;101629.03;5060111;28;45490;-54
2022/03/09 08:03:59;;;;;;;;;57.75;47.50;;;;;8.66;44.64;101623.78;5060099;28;45405;-53
2022/03/09 08:06:25;;;;;;;;;58.25;46.00;;;;;8.71;44.54;101643.03;5060063;28;45351;-53
2022/03/09 08:08:52;;;;;;;;;51.00;40.25;;;;;8.74;44.44;101645.66;5060095;28;45316;-55
2022/03/09 08:11:19;;;;;;;;;51.50;41.75;;;;;8.72;44.69;101650.91;5060163;28;45525;-55
2022/03/09 08:13:45;;;;;;;;;55.75;44.50;;;;;8.78;44.54;101650.94;5060070;28;45248;-48
2022/03/09 08:16:12;;;;;;;;;53.50;44.00;;;;;8.77;44.92;101649.19;5057718;28;45464;-47
2022/03/09 08:18:39;;;;;;;;;59.00;43.00;;;;;8.84;44.89;101662.34;5068807;28;45329;-51
2022/03/09 08:21:05;;;;;;;;;49.25;40.00;;;;;8.87;44.98;101659.75;5059705;28;45471;-45
2022/03/09 08:23:31;;;;;;;;;53.25;43.00;;;;;8.92;45.08;101658.06;5060091;28;45466;-55
2022/03/09 08:25:57;;;;;;;;;52.00;41.25;;;;;8.96;45.15;101651.97;5058215;28;45513;-53
2022/03/09 08:28:23;;;;;;;;;56.00;45.00;;;;;9.03;45.06;101659.00;5060086;28;45339;-56
2022/03/09 08:30:49;;;;;;;;;53.00;44.00;;;;;9.09;44.83;101658.16;5059195;28;45272;-51
2022/03/09 08:33:15;;;;;;;;;58.00;44.75;;;;;9.16;45.11;101661.72;5059837;28;45471;-51
2022/03/09 08:35:40;;;;;;;;;50.25;42.00;;;;;9.16;45.39;101652.09;5061199;28;45353;-48
2022/03/09 08:38:06;;;;;;;;;51.75;41.50;;;;;9.18;45.45;101652.09;5061462;28;45236;-46
2022/03/09 08:40:31;;;;;;;;;55.75;45.25;;;;;9.24;45.36;101660.00;5060803;28;45435;-46
2022/03/09 08:42:57;;;;;;;;;52.00;43.00;;;;;9.29;45.54;101666.16;5060976;28;46156;-46
2022/03/09 08:45:23;;;;;;;;;58.25;42.00;;;;;9.30;45.60;101657.41;5060938;28;45188;-46
2022/03/09 08:47:48;;;;;;;;;52.50;41.75;;;;;9.37;45.42;101651.34;5061042;28;45352;-47
2022/03/09 08:50:14;;;;;;;;;50.00;39.25;;;;;9.41;45.73;101644.38;5060787;28;45293;-45
2022/03/09 08:52:39;;;;;;;;;50.00;40.50;;;;;9.50;45.56;101657.53;5060963;28;46204;-49
2022/03/09 08:55:05;;;;;;;;;45.75;39.00;;;;;9.57;45.76;101659.31;5059492;28;45351;-49
2022/03/09 08:57:31;;;;;;;;;50.50;40.50;;;;;9.61;45.78;101647.09;5061156;28;45347;-49
2022/03/09 08:59:57;;;;;;;;;50.00;40.00;;;;;9.69;45.45;101655.00;5059303;28;45581;-45
2022/03/09 09:02:23;;;;;;;;;46.00;38.50;;;;;9.75;46.07;101647.13;5059303;28;47813;-49
2022/03/09 09:04:49;;;;;;;;;49.75;39.25;;;;;9.80;45.82;101645.41;5060730;28;45318;-52
2022/03/09 09:07:15;;;;;;;;;50.75;41.50;;;;;9.88;46.26;101638.41;5060726;28;45291;-47
2022/03/09 09:09:41;;;;;;;;;53.25;40.75;;;;;9.93;46.09;101641.91;5060485;28;45170;-46
2022/03/09 09:12:07;;;;;;;;;51.00;41.50;;;;;10.00;46.33;101642.84;5060627;28;45320;-47
2022/03/09 09:14:32;;;;;;;;;48.25;39.25;;;;;10.07;46.29;101642.00;5059506;28;45316;-46
2022/03/09 09:16:58;;;;;;;;;47.25;39.00;;;;;10.16;46.35;101645.50;5060712;28;45449;-46
2022/03/09 09:19:24;;;;;;;;;48.75;39.00;;;;;10.23;46.20;101650.75;5059074;28;45332;-46
2022/03/09 09:21:49;;;;;;;;;41.75;35.00;;;;;10.32;46.58;101643.78;5060356;28;46223;-47
2022/03/09 09:24:15;;;;;;;;;40.00;35.50;;;;;10.35;46.79;101652.53;5060279;28;45404;-46
2022/03/09 09:26:40;;;;;;;;;45.50;37.25;;;;;10.42;46.76;101645.56;5060583;28;45406;-47
2022/03/09 09:29:07;;;;;;;;;37.75;32.25;;;;;10.47;46.72;101653.47;5060260;28;45445;-47
2022/03/09 09:31:32;;;;;;;;;40.00;35.50;;;;;10.57;46.99;101637.69;5060018;28;46291;-48
2022/03/09 09:33:58;;;;;;;;;39.25;32.75;;;;;10.64;46.99;101632.41;5060213;28;45465;-51
2022/03/09 09:36:23;;;;;;;;;43.00;33.75;;;;;10.72;46.88;101628.91;5060421;28;45296;-47
2022/03/09 09:38:49;;;;;;;;;36.25;32.50;;;;;10.69;47.22;101615.78;5060229;28;45508;-47
2022/03/09 09:41:18;;;;;;;;;32.25;29.00;;;;;10.82;47.21;101614.00;5059997;28;46238;-49
2022/03/09 09:43:45;;;;;;;;;37.75;32.00;;;;;10.93;47.07;101627.16;5059968;28;45347;-47
2022/03/09 09:46:15;;;;;;;;;34.00;30.25;;;;;11.00;47.09;101623.63;5060269;28;45368;-47
2022/03/09 09:48:40;;;;;;;;;31.00;26.00;;;;;11.09;47.18;101621.84;5060009;28;45255;-45
2022/03/09 09:51:07;;;;;;;;;30.00;27.00;;;;;11.19;47.31;101619.22;5059938;28;45984;-48
2022/03/09 09:53:35;;;;;;;;;30.25;25.75;;;;;11.27;47.12;101621.81;5059826;28;45252;-48
2022/03/09 09:56:01;;;;;;;;;26.25;25.25;;;;;11.36;47.31;101616.50;5059938;28;45334;-49
2022/03/09 09:58:28;;;;;;;;;25.75;23.50;;;;;11.47;47.31;101613.84;5059898;28;45501;-48
2022/03/09 10:00:55;;;;;;;;;25.25;23.00;;;;;11.57;47.30;101611.16;5058033;28;48093;-50
2022/03/09 10:03:20;;;;;;;;;21.50;18.75;;;;;11.69;47.46;101616.38;5059820;28;45240;-47
2022/03/09 10:05:46;;;;;;;;;20.00;20.00;;;;;11.78;47.61;101612.84;5060035;28;45248;-47
2022/03/09 10:08:16;;;;;;;;;25.25;24.00;;;;;11.90;47.53;101611.88;5059668;28;45656;-47
2022/03/09 10:11:03;;;;;;;;;22.00;22.00;;;;;12.00;47.43;101619.75;5059488;28;47293;-46
2022/03/09 10:13:31;;;;;;;;;21.75;19.00;;;;;12.12;47.85;101617.94;5059586;28;45258;-49
2022/03/09 10:16:18;;;;;;;;;24.25;22.00;;;;;12.22;47.63;101618.75;5062769;28;45375;-48
2022/03/09 10:18:51;;;;;;;;;23.50;18.25;;;;;12.29;47.73;101610.78;5058521;28;45279;-50
2022/03/09 10:21:23;;;;;;;;;15.75;15.00;;;;;12.38;47.72;101607.19;5059292;28;46447;-46
2022/03/09 10:23:59;;;;;;;;;17.50;17.50;;;;;12.45;47.76;101605.38;5059433;28;45300;-49
2022/03/09 10:26:46;;;;;;;;;17.25;17.25;;;;;12.57;47.79;101605.28;5059598;28;45283;-51
2022/03/09 10:29:15;;;;;;;;;18.00;16.00;;;;;12.69;47.35;101606.91;5059523;28;45507;-47
2022/03/09 10:31:44;;;;;;;;;15.75;13.75;;;;;12.81;47.43;101605.94;5058843;28;45380;-47
2022/03/09 10:34:20;;;;;;;;;12.75;12.75;;;;;12.91;47.76;101601.47;5059430;28;45376;-47
2022/03/09 10:37:00;;;;;;;;;16.00;15.25;;;;;13.00;47.47;101601.34;5059721;28;45235;-47
2022/03/09 10:39:34;;;;;;;;;14.50;13.25;;;;;13.11;47.58;101602.13;5058882;28;45287;-51
2022/03/09 10:42:01;;;;;;;;;12.00;11.00;;;;;13.21;47.70;101600.25;5058004;28;47878;-47
2022/03/09 10:44:46;;;;;;;;;15.25;14.00;;;;;13.29;47.62;101597.50;5059165;28;45362;-45
2022/03/09 10:47:27;;;;;;;;;16.00;13.50;;;;;13.37;47.63;101594.78;5057843;28;45338;-49
2022/03/09 10:49:52;;;;;;;;;15.50;14.50;;;;;13.50;47.44;101591.13;5062839;28;45379;-46
2022/03/09 10:52:17;;;;;;;;;13.75;12.25;;;;;13.57;47.49;101592.81;5062547;28;46778;-47
2022/03/09 10:54:43;;;;;;;;;19.25;16.25;;;;;13.72;47.30;101590.84;5062708;28;45318;-46
2022/03/09 10:57:11;;;;;;;;;19.75;17.00;;;;;13.77;47.29;101586.38;5063020;28;45234;-50
2022/03/09 10:59:53;;;;;;;;;16.25;15.25;;;;;13.92;47.58;101595.84;5062896;28;45345;-46
2022/03/09 11:02:21;;;;;;;;;16.50;15.50;;;;;14.04;47.16;101592.16;5060941;28;46266;-47
2022/03/09 11:05:10;;;;;;;;;17.50;17.50;;;;;14.19;47.58;101591.03;5062669;28;45314;-49
2022/03/09 11:07:37;;;;;;;;;18.25;17.50;;;;;14.34;47.00;101589.91;5062455;28;45297;-48
2022/03/09 11:10:08;;;;;;;;;18.00;17.25;;;;;14.47;47.25;101587.03;5062320;28;45466;-49
2022/03/09 11:12:34;;;;;;;;;18.75;17.25;;;;;14.55;47.30;101581.63;5062273;28;46973;-50
2022/03/09 11:15:01;;;;;;;;;17.25;17.25;;;;;14.73;46.88;101595.44;5062352;28;45254;-49